KSQI

Whiteside Co Arpt-Jos H Bittorf Field Airport

Sterling/Rockfalls, Illinois, USA
METAR KSQI 190656Z AUTO VRB03KT 10SM CLR M03/M07 A2994 RMK AO2 SLP163 T10331067 FZRANO
Observed Flight Rules
Jan-19 @ 06:56 UTC (31 minutes ago) Visual Flight Rules
Wind Visibility Clouds
Variable at 3 knots 10 miles
  • Clear skies
Temperatures Readings
Current -3°C / 27°F
Dewpoint -7°C / 19°F
Humidity 74%
Altimeter 29.94" Hg
Pressure 1016.3 hPa
Elevation 197
METAR KSQI 190656Z AUTO VRB03KT 10SM CLR M03/M07 A2994 RMK AO2 SLP163 T10331067 FZRANO
Observed Flight Rules
Jan-19 @ 06:56 UTC
(31 minutes ago)
VFR
Wind Visibility
Variable at 3 knots 10 miles
Clouds
  • Clear skies
Temperature Dewpoint
-3°C / 27°F -7°C / 19°F
Humidity Altimeter Pressure
74% 29.94" Hg 1016.3 hPa